Weather observations for the past three days for
Hastings, Hastings Municipal Airport
Imperial (Metric)
Date Time (cdt) Wind (mph) Vis. (mi.) Weather Sky Cond. Temperature (ºF) Relative Humidity Wind Chill (°F) Heat Index (°F) Pressure Precipitation (in)
Air Dwpt 6 hour altimeter (in) sea level (mb) 1 hr 3 hr 6 hr
Max. Min.
31 11:53 Calm 10.00 Fair CLR 80.1 66 62% 82 30.01 1014.5
31 10:53 NE 7 10.00 Fair CLR 77 64.9 66% 79 30 1014.0
31 09:53 N 9 10.00 Fair CLR 73.9 64 71% 29.99 1013.7
31 08:53 NW 9 10.00 Fair CLR 71.1 64.9 81% 29.97 1013.1
31 07:53 NW 10 10.00 Fair CLR 70 64 82% 29.96 1012.6
31 06:53 Calm 10.00 A Few Clouds FEW100 FEW120 70 64.9 75.9 70 84% 29.95 1012.3 0.01 0.01
31 05:53 W 13 10.00 Light Rain FEW100 SCT120 73.9 64 71% 30 1013.8
31 04:53 W 9 10.00 Partly Cloudy SCT100 73.9 68 82% 29.94 1011.9
31 03:53 SW 6 10.00 Fair CLR 73 69.1 87% 29.91 1010.8
31 02:53 SW 3 10.00 Fair CLR 73 69.1 87% 29.9 1010.5
31 01:53 SW 6 10.00 Fair CLR 75 69.1 82% 75 29.89 1010.1
30 23:53 Calm 10.00 Fair CLR 75 71.1 88% 75 29.86 1009.3
30 22:53 Calm 10.00 Fair CLR 75.9 71.1 85% 76 29.87 1009.5
30 21:53 Calm 10.00 Fair CLR 77 72 85% 78 29.88 1010.0
30 20:53 Calm 10.00 Fair CLR 80.1 73 79% 84 29.87 1009.4
30 19:53 Calm 10.00 Fair CLR 84 72 67% 90 29.86 1009.1
30 18:53 Calm 10.00 Fair CLR 87.1 72 88 84.9 61% 94 29.86 1009.1
30 17:53 S 5 10.00 Fair CLR 88 71.1 57% 94 29.85 1008.5
30 16:53 S 8 10.00 Fair CLR 88 71.1 57% 94 29.85 1008.4
30 15:53 S 6 10.00 Fair CLR 87.1 71.1 59% 93 29.85 1008.8
30 14:53 S 8 10.00 Fair CLR 87.1 72 61% 94 29.86 1008.7
30 13:53 Calm 10.00 Fair CLR 88 66.9 50% 91 29.85 1008.4
30 12:53 W 5 10.00 Fair CLR 86 69.1 87.1 71.1 57% 90 29.86 1008.9
30 11:53 NW 8 10.00 Fair CLR 82 68 63% 85 29.85 1008.6
30 10:53 SW 9 10.00 Fair CLR 80.1 64.9 60% 82 29.88 1009.4
30 09:53 W 8 10.00 Fair CLR 77 63 62% 79 29.84 1008.7
30 08:53 S 6 10.00 Fair CLR 75.9 61 60% 78 29.84 1008.3
30 07:53 S 8 10.00 Fair CLR 72 61 68% 29.82 1007.6
30 06:53 S 8 10.00 Fair CLR 73 62.1 79 73 69% 29.81 1007.3
30 05:53 SE 7 10.00 Fair CLR 75 64.9 71% 77 29.81 1007.2
30 04:53 E 8 10.00 Fair CLR 75 66 74% 76 29.83 1007.9
30 03:53 Calm 10.00 Fair CLR 73 66.9 81% 29.88 1009.5
30 02:53 SW 3 10.00 A Few Clouds FEW110 75.9 64 67% 78 29.88 1009.6
30 01:53 S 7 10.00 Fair CLR 77 62.1 60% 79 29.84 1008.3
30 00:53 S 7 10.00 Fair CLR 79 63 91.9 77 58% 81 29.84 1008.1
29 23:53 S 9 10.00 Fair CLR 82.9 64 53% 84 29.83 1007.8
29 22:53 SE 8 10.00 Fair CLR 84.9 69.1 59% 89 29.83 1007.9
29 21:53 Calm 10.00 Fair CLR 79 73 82% 82 29.84 1008.4
29 20:53 Calm 7.00 Fair CLR 81 73.9 79% 86 29.82 1007.9
29 19:53 Calm 10.00 Fair CLR 89.1 70 53% 94 29.82 1007.5
29 18:53 S 3 10.00 Fair CLR 91.9 70 93 86 49% 98 29.81 1007.2
29 17:53 SW 5 10.00 Fair CLR 91.9 69.1 47% 97 29.82 1007.5
29 16:53 S 8 10.00 Fair CLR 91.9 68 46% 96 29.82 1007.7
29 15:53 SW 12 10.00 Fair CLR 91 66.9 45% 94 29.85 1008.4
29 14:53 S 12 10.00 Fair CLR 90 64.9 44% 92 29.87 1009.2
29 13:53 S 13 10.00 Fair CLR 88 66 48% 90 29.87 1009.4
29 12:53 SW 10 10.00 Fair CLR 86 64.9 86 70 49% 88 29.89 1010.1
29 11:53 SW 12 G 21 10.00 Fair CLR 82.9 62.1 49% 84 29.9 1010.5
29 10:53 SW 13 G 18 10.00 Fair CLR 80.1 60.1 51% 81 29.91 1010.9
29 09:53 S 10 G 20 10.00 Fair CLR 77 59 54% 79 29.91 1011.1
29 08:53 S 10 G 20 10.00 Fair CLR 75 59 58% 77 29.91 1010.9
29 07:53 S 9 10.00 Fair CLR 72 57.9 61% 29.92 1011.2
29 06:53 S 8 G 17 10.00 Fair CLR 71.1 57 73.9 71.1 61% 29.92 1011.2
29 05:53 S 10 10.00 A Few Clouds FEW120 72 57 59% 29.93 1011.5
29 04:53 S 10 G 21 10.00 Partly Cloudy FEW065 SCT080 73 57.9 59% 29.95 1012.0
29 03:53 S 12 10.00 Fair CLR 73.9 57.9 57% 29.96 1012.5
29 02:53 S 8 10.00 Fair CLR 72 61 68% 29.97 1012.9
29 01:53 S 8 10.00 Fair CLR 72 63 73% 29.98 1013.2
29 00:53 S 10 10.00 Fair CLR 73 63 84 73 71% 29.99 1013.6
28 23:53 S 10 10.00 Fair CLR 75 64 69% 77 29.99 1013.6
28 22:53 S 12 10.00 Fair CLR 75.9 64.9 69% 78 29.98 1013.6
28 21:53 SE 12 10.00 Fair CLR 77 66 69% 79 29.99 1013.8
28 20:53 SE 10 10.00 Fair CLR 79 66 65% 81 29.97 1013.2
28 19:53 SE 10 10.00 Fair CLR 81 66 61% 83 29.98 1013.6
28 18:53 SE 10 10.00 Fair CLR 84 66 88 81 55% 86 29.99 1014.0
28 17:53 S 12 G 17 10.00 Fair CLR 88 64.9 46% 90 30.01 1014.4
28 16:53 S 14 G 23 10.00 Fair CLR 88 66 48% 90 30.02 1014.5
28 15:53 S 12 10.00 Fair CLR 88 66.9 50% 91 30.04 1015.2
28 14:53 S 13 10.00 Fair CLR 86 66 51% 88 30.06 1016.1
28 13:53 S 12 G 20 10.00 Fair CLR 84 64.9 53% 86 30.08 1016.6
28 12:53 SW 10 10.00 Fair CLR 81 64.9 81 64 58% 83 30.11 1017.8
Date Time (cdt) Wind (mph) Vis. (mi.) Weather Sky Cond. Air Dwpt Max. Min. Relative Humidity Wind Chill (°F) Heat Index (°F) altimeter (in) sea level (mb) 1 hr 3 hr 6 hr
6 hour
Temperature (ºF) Pressure Precipitation (in)